Time;durP1;ratioP1;P1;durP2;ratioP2;P2;SDS_P1;SDS_P2;PMS_P1;PMS_P2;Temp;Humidity;BMP_temperature;BMP_pressure;BME280_temperature;BME280_humidity;BME280_pressure;Samples;Min_cycle;Max_cycle;Signal;HPM_P1;HPM_P2
2021/09/08 00:01:37;;;;;;;23.15;12.60;;;;;;;9.13;58.95;101490.17;1753231;80;21011;-73
2021/09/08 00:04:04;;;;;;;21.30;11.30;;;;;;;9.12;58.91;101503.83;1753893;80;20956;-74
2021/09/08 00:06:31;;;;;;;20.85;11.85;;;;;;;9.12;58.76;101497.70;1754070;80;21007;-73
2021/09/08 00:08:58;;;;;;;19.23;11.80;;;;;;;9.14;58.76;101498.46;1752635;80;22248;-73
2021/09/08 00:11:26;;;;;;;20.77;11.15;;;;;;;9.12;58.67;101501.19;1753204;80;21482;-74
2021/09/08 00:13:53;;;;;;;20.17;11.15;;;;;;;9.11;58.62;101503.45;1753422;80;20941;-74
2021/09/08 00:16:21;;;;;;;17.10;10.65;;;;;;;9.11;58.62;101500.81;1725481;82;20985;-72
2021/09/08 00:18:49;;;;;;;19.17;10.82;;;;;;;9.10;58.61;101496.47;1716449;82;21005;-73
2021/09/08 00:21:16;;;;;;;19.00;10.43;;;;;;;9.11;58.50;101502.59;1753323;80;22184;-73
2021/09/08 00:23:42;;;;;;;17.70;10.00;;;;;;;9.10;58.52;101500.90;1752468;82;20936;-73
2021/09/08 00:26:09;;;;;;;17.90;9.78;;;;;;;9.12;58.56;101502.97;1755450;80;21043;-73
2021/09/08 00:28:36;;;;;;;16.90;9.90;;;;;;;9.11;58.54;101501.28;1752547;80;20991;-73
2021/09/08 00:31:02;;;;;;;19.87;9.83;;;;;;;9.10;58.52;101500.43;1754263;80;21009;-73
2021/09/08 00:33:30;;;;;;;15.65;10.10;;;;;;;9.10;58.51;101500.43;1714915;82;21836;-73
2021/09/08 00:36:00;;;;;;;15.98;9.35;;;;;;;9.09;58.43;101503.16;1745034;80;20896;-74
2021/09/08 00:38:28;;;;;;;19.50;9.20;;;;;;;9.09;58.30;101501.37;1733821;82;20991;-73
2021/09/08 00:40:57;;;;;;;17.82;9.65;;;;;;;9.09;58.41;101496.09;1733731;82;21446;-73
2021/09/08 00:43:24;;;;;;;15.85;8.95;;;;;;;9.09;58.31;101505.32;1752275;80;21067;-73
2021/09/08 00:45:53;;;;;;;16.55;9.25;;;;;;;9.09;58.38;101504.00;1752795;80;22240;-73
2021/09/08 00:48:20;;;;;;;14.58;8.88;;;;;;;9.11;58.45;101506.55;1747966;80;21004;-73
2021/09/08 00:50:48;;;;;;;14.13;8.30;;;;;;;9.11;58.30;101504.77;1750295;80;21455;-72
2021/09/08 00:53:20;;;;;;;14.03;8.35;;;;;;;9.12;58.15;101505.61;1690067;84;21083;-73
2021/09/08 00:55:49;;;;;;;16.23;8.63;;;;;;;9.11;58.14;101510.03;1744754;82;21451;-73
2021/09/08 00:58:16;;;;;;;15.58;7.97;;;;;;;9.10;58.10;101507.48;1740013;80;22819;-74
2021/09/08 01:00:43;;;;;;;14.47;8.45;;;;;;;9.09;58.22;101507.11;1752144;80;21459;-72
2021/09/08 01:03:11;;;;;;;13.03;7.72;;;;;;;9.09;58.23;101509.74;1774238;80;20937;-73
2021/09/08 01:05:39;;;;;;;16.80;7.95;;;;;;;9.08;58.23;101513.31;1747546;80;21419;-73
2021/09/08 01:08:09;;;;;;;18.45;8.28;;;;;;;9.08;58.12;101512.00;1748018;80;21028;-73
2021/09/08 01:10:36;;;;;;;11.95;7.60;;;;;;;9.07;58.09;101512.47;1749635;80;22166;-73
2021/09/08 01:13:03;;;;;;;13.30;7.67;;;;;;;9.05;58.13;101509.04;1746025;80;21380;-73
2021/09/08 01:15:32;;;;;;;13.03;8.15;;;;;;;9.03;58.14;101503.01;1768073;80;20937;-73
2021/09/08 01:18:01;;;;;;;14.58;7.78;;;;;;;9.00;58.13;101503.66;1771579;80;21395;-73
2021/09/08 01:20:28;;;;;;;13.00;7.92;;;;;;;8.97;58.15;101502.02;1745410;80;21004;-73
2021/09/08 01:22:55;;;;;;;14.40;7.60;;;;;;;8.96;58.04;101508.23;1758338;80;22233;-73
2021/09/08 01:25:24;;;;;;;14.95;7.25;;;;;;;8.96;58.24;101505.59;1744696;82;20981;-73
2021/09/08 01:27:52;;;;;;;13.03;7.37;;;;;;;8.95;58.40;101511.80;1747171;80;21480;-73
2021/09/08 01:30:21;;;;;;;12.60;7.50;;;;;;;8.93;58.32;101511.03;1748708;80;20993;-73
2021/09/08 01:32:47;;;;;;;12.40;7.58;;;;;;;8.92;58.41;101509.81;1744890;82;21079;-73
2021/09/08 01:35:17;;;;;;;14.80;7.55;;;;;;;8.89;58.47;101501.61;1744828;82;22253;-73
2021/09/08 01:37:47;;;;;;;11.20;7.33;;;;;;;8.86;58.41;101497.80;1753708;80;20917;-73
2021/09/08 01:40:16;;;;;;;14.47;7.97;;;;;;;8.83;58.49;101506.73;1772194;79;21115;-74
2021/09/08 01:42:43;;;;;;;13.15;7.22;;;;;;;8.82;58.46;101505.04;1760008;80;21001;-74
2021/09/08 01:45:14;;;;;;;14.83;7.50;;;;;;;8.78;58.43;101501.31;1758267;80;20937;-73
2021/09/08 01:47:41;;;;;;;11.08;6.75;;;;;;;8.75;58.44;101502.34;1770070;80;22650;-74
2021/09/08 01:50:08;;;;;;;12.75;7.35;;;;;;;8.72;58.49;101502.52;1709275;82;21487;-75
2021/09/08 01:52:37;;;;;;;10.82;6.67;;;;;;;8.69;58.55;101496.57;1681072;83;21055;-74
2021/09/08 01:55:07;;;;;;;12.20;7.53;;;;;;;8.67;58.67;101491.36;1692667;84;21014;-74
2021/09/08 01:57:34;;;;;;;11.73;6.72;;;;;;;8.66;58.66;101499.34;1751089;80;20950;-73
2021/09/08 02:00:03;;;;;;;12.75;7.33;;;;;;;8.65;58.60;101495.02;1744557;80;21818;-73
2021/09/08 02:02:31;;;;;;;11.78;7.50;;;;;;;8.64;58.67;101496.80;1749563;80;20992;-73
2021/09/08 02:04:57;;;;;;;14.83;6.70;;;;;;;8.64;58.63;101494.64;1743731;80;21066;-73
2021/09/08 02:07:26;;;;;;;12.58;6.50;;;;;;;8.63;58.66;101492.94;1742794;82;21012;-73
2021/09/08 02:09:52;;;;;;;16.02;7.08;;;;;;;8.61;58.76;101491.71;1750504;80;20960;-72
2021/09/08 02:12:20;;;;;;;11.03;6.58;;;;;;;8.59;58.75;101490.48;1754239;80;20913;-74
2021/09/08 02:14:46;;;;;;;12.80;6.72;;;;;;;8.54;58.91;101488.54;1754108;80;21001;-74
2021/09/08 02:17:13;;;;;;;17.52;7.08;;;;;;;8.52;59.04;101494.83;1744977;80;20956;-74
2021/09/08 02:19:39;;;;;;;9.78;6.70;;;;;;;8.48;59.17;101493.27;1758556;79;21404;-74
2021/09/08 02:22:06;;;;;;;12.35;7.25;;;;;;;8.44;59.31;101492.59;1744447;80;21463;-74
2021/09/08 02:24:32;;;;;;;11.80;6.85;;;;;;;8.42;59.49;101490.52;1733606;82;22673;-74
2021/09/08 02:26:59;;;;;;;16.60;7.00;;;;;;;8.42;59.57;101493.61;1746374;80;21436;-74
2021/09/08 02:29:26;;;;;;;13.53;7.10;;;;;;;8.37;59.71;101481.99;1774174;79;21399;-74
2021/09/08 02:31:52;;;;;;;14.95;7.53;;;;;;;8.32;59.93;101495.38;1761793;80;20960;-72
2021/09/08 02:34:19;;;;;;;12.98;7.60;;;;;;;8.30;59.86;101493.77;1747903;80;21050;-72
2021/09/08 02:36:46;;;;;;;11.68;7.42;;;;;;;8.26;59.98;101493.52;1709378;84;22831;-73
2021/09/08 02:39:12;;;;;;;16.73;7.85;;;;;;;8.25;60.01;101491.82;1778307;80;20905;-73
2021/09/08 02:41:39;;;;;;;16.40;8.25;;;;;;;8.20;60.10;101490.76;1772724;80;21492;-73
2021/09/08 02:44:05;;;;;;;13.90;7.87;;;;;;;8.17;60.14;101486.09;1754568;80;21009;-73
2021/09/08 02:46:33;;;;;;;11.78;7.30;;;;;;;8.15;60.19;101485.33;1754522;80;21415;-74
2021/09/08 02:48:59;;;;;;;11.15;7.37;;;;;;;8.11;60.23;101485.97;1749001;80;22186;-73
2021/09/08 02:51:25;;;;;;;12.90;7.35;;;;;;;8.11;60.33;101493.02;1753240;80;21460;-73
2021/09/08 02:53:52;;;;;;;15.35;8.03;;;;;;;8.08;60.40;101491.83;1750868;80;21056;-73
2021/09/08 02:56:18;;;;;;;12.37;7.37;;;;;;;8.04;60.35;101493.78;1777502;80;20981;-73
2021/09/08 02:58:45;;;;;;;15.18;7.70;;;;;;;7.98;60.51;101492.30;1748288;80;21023;-73
2021/09/08 03:01:12;;;;;;;20.15;8.85;;;;;;;7.94;60.68;101492.08;1754264;80;22189;-73
2021/09/08 03:03:39;;;;;;;16.52;8.60;;;;;;;7.89;60.78;101486.65;1768442;80;20972;-73
2021/09/08 03:06:05;;;;;;;14.03;8.45;;;;;;;7.85;60.92;101489.91;1770343;80;21043;-73
2021/09/08 03:08:32;;;;;;;14.20;8.48;;;;;;;7.82;61.04;101493.17;1755491;80;21408;-73
2021/09/08 03:10:59;;;;;;;15.38;8.73;;;;;;;7.79;61.19;101492.84;1773794;80;20968;-73
2021/09/08 03:13:26;;;;;;;17.25;8.70;;;;;;;7.75;61.38;101493.93;1716692;80;22267;-73
2021/09/08 03:15:54;;;;;;;17.77;8.75;;;;;;;7.74;61.54;101487.82;1770419;80;20941;-73
2021/09/08 03:18:22;;;;;;;13.15;8.65;;;;;;;7.73;61.61;101495.33;1778354;80;20969;-72
2021/09/08 03:20:49;;;;;;;14.63;8.53;;;;;;;7.72;61.72;101492.75;1751602;80;20997;-73
2021/09/08 03:23:15;;;;;;;15.60;8.98;;;;;;;7.73;61.76;101496.64;1721626;80;21039;-73
2021/09/08 03:25:42;;;;;;;14.63;8.28;;;;;;;7.75;61.60;101496.09;1757891;80;21803;-73
2021/09/08 03:28:08;;;;;;;14.53;9.10;;;;;;;7.77;61.58;101497.33;1752587;80;20965;-73
2021/09/08 03:30:34;;;;;;;18.02;8.65;;;;;;;7.78;61.58;101497.71;1746406;80;20948;-73
2021/09/08 03:33:02;;;;;;;12.75;7.92;;;;;;;7.77;61.62;101493.85;1746931;80;21134;-73
2021/09/08 03:35:30;;;;;;;13.72;8.40;;;;;;;7.77;61.57;101499.11;1745136;80;20948;-75
2021/09/08 03:37:56;;;;;;;13.55;8.03;;;;;;;7.77;61.50;101497.80;1740538;80;21849;-75
2021/09/08 03:40:23;;;;;;;14.80;8.00;;;;;;;7.76;61.53;101495.63;1763299;80;20915;-73
2021/09/08 03:42:50;;;;;;;14.95;8.10;;;;;;;7.75;61.57;101494.78;1772773;80;21448;-73
2021/09/08 03:45:18;;;;;;;11.43;6.97;;;;;;;7.76;61.57;101495.63;1752094;80;21618;-74
2021/09/08 03:47:45;;;;;;;12.23;7.37;;;;;;;7.77;61.62;101492.53;1744442;82;21022;-74
2021/09/08 03:50:11;;;;;;;14.93;7.40;;;;;;;7.77;61.71;101490.75;1745309;80;22205;-76
2021/09/08 03:52:39;;;;;;;14.98;7.30;;;;;;;7.78;61.75;101490.28;1758684;80;21028;-75
2021/09/08 03:55:07;;;;;;;14.00;7.37;;;;;;;7.77;61.80;101489.91;1733704;82;21035;-75
2021/09/08 03:57:40;;;;;;;12.75;7.08;;;;;;;7.77;61.76;101486.81;1744967;80;20945;-72
2021/09/08 04:00:10;;;;;;;13.98;7.65;;;;;;;7.79;61.88;101485.41;1750949;80;21027;-74
2021/09/08 04:02:37;;;;;;;12.70;7.05;;;;;;;7.82;61.97;101485.28;1748377;80;21832;-75
2021/09/08 04:05:05;;;;;;;13.70;6.72;;;;;;;7.85;61.94;101482.02;1744122;80;21360;-76
2021/09/08 04:07:32;;;;;;;11.57;6.53;;;;;;;7.87;61.98;101477.99;1762108;80;21779;-76
2021/09/08 04:09:59;;;;;;;14.13;7.30;;;;;;;7.89;62.02;101486.65;1769656;80;21020;-76
2021/09/08 04:12:25;;;;;;;10.80;6.85;;;;;;;7.91;62.00;101484.35;1743932;80;21088;-73
2021/09/08 04:14:53;;;;;;;14.53;6.87;;;;;;;7.95;61.99;101491.61;1744598;80;20985;-76
2021/09/08 04:17:21;;;;;;;12.23;6.70;;;;;;;7.97;62.00;101493.70;1744294;81;20981;-74
2021/09/08 04:19:47;;;;;;;11.22;6.72;;;;;;;8.00;61.93;101488.27;1765905;79;20968;-74
2021/09/08 04:22:13;;;;;;;18.25;6.80;;;;;;;8.02;61.95;101491.23;1775061;80;20950;-75
2021/09/08 04:24:40;;;;;;;13.40;6.35;;;;;;;8.07;62.04;101494.08;1774675;80;21000;-75
2021/09/08 04:27:06;;;;;;;10.43;6.10;;;;;;;8.08;62.05;101497.94;1772923;80;21444;-74
2021/09/08 04:29:33;;;;;;;16.07;6.67;;;;;;;8.12;61.97;101496.88;1744595;82;21432;-76
2021/09/08 04:31:59;;;;;;;15.40;6.83;;;;;;;8.14;61.88;101495.48;1744398;80;21177;-75
2021/09/08 04:34:26;;;;;;;12.73;6.30;;;;;;;8.16;61.85;101494.92;1747244;80;21078;-77
2021/09/08 04:36:52;;;;;;;13.95;6.20;;;;;;;8.21;61.86;101496.88;1755527;80;20997;-75
2021/09/08 04:39:18;;;;;;;14.47;6.90;;;;;;;8.22;61.86;101494.16;1760527;80;21798;-75
2021/09/08 04:41:45;;;;;;;10.78;6.33;;;;;;;8.23;61.92;101490.59;1752254;80;21023;-76
2021/09/08 04:44:11;;;;;;;16.67;6.95;;;;;;;8.30;62.09;101491.13;1746880;80;20932;-75
2021/09/08 04:46:38;;;;;;;11.05;6.17;;;;;;;8.35;62.21;101490.91;1753096;80;21023;-74
2021/09/08 04:49:04;;;;;;;13.15;6.10;;;;;;;8.42;62.32;101491.83;1762338;80;21005;-76
2021/09/08 04:51:32;;;;;;;13.13;6.50;;;;;;;8.47;62.37;101490.25;1765985;80;20910;-77
2021/09/08 04:53:59;;;;;;;13.88;6.10;;;;;;;8.54;62.47;101491.64;1773687;80;21048;-76
2021/09/08 04:56:28;;;;;;;17.27;6.65;;;;;;;8.64;62.62;101490.69;1753764;80;20984;-77
2021/09/08 04:58:55;;;;;;;13.95;6.55;;;;;;;8.72;62.74;101489.34;1741257;80;21004;-77
2021/09/08 05:01:21;;;;;;;15.10;6.85;;;;;;;8.81;62.89;101482.27;1748969;80;20997;-75
2021/09/08 05:03:50;;;;;;;10.08;5.58;;;;;;;8.91;62.92;101487.87;1759722;80;22646;-74
2021/09/08 05:06:16;;;;;;;15.55;6.55;;;;;;;9.03;62.91;101496.89;1746698;80;20893;-80
2021/09/08 05:08:42;;;;;;;11.35;6.05;;;;;;;9.16;62.91;101497.91;1743203;80;21042;-81
2021/09/08 05:11:10;;;;;;;11.85;6.00;;;;;;;9.30;62.77;101497.16;1762114;80;20996;-80
2021/09/08 05:13:37;;;;;;;11.83;5.53;;;;;;;9.44;62.62;101497.20;1755727;80;21318;-80
2021/09/08 05:16:04;;;;;;;9.85;5.92;;;;;;;9.59;62.35;101492.39;1771224;80;22157;-81
2021/09/08 05:18:30;;;;;;;10.85;6.35;;;;;;;9.75;61.98;101502.45;1748631;80;20928;-80
2021/09/08 05:20:59;;;;;;;14.45;6.25;;;;;;;9.91;61.41;101488.34;1773247;80;21032;-80
2021/09/08 05:23:25;;;;;;;13.05;6.47;;;;;;;10.06;61.20;101490.56;1773570;80;21008;-80
2021/09/08 05:25:52;;;;;;;14.63;6.55;;;;;;;10.21;61.02;101497.07;1773751;80;21514;-80
2021/09/08 05:28:20;;;;;;;10.45;5.62;;;;;;;10.36;60.85;101495.34;1773806;80;22633;-80
2021/09/08 05:30:47;;;;;;;13.55;6.28;;;;;;;10.52;60.71;101491.31;1774759;80;21097;-80
2021/09/08 05:33:13;;;;;;;14.23;5.83;;;;;;;10.69;60.40;101491.09;1775151;80;20933;-81
2021/09/08 05:35:39;;;;;;;11.45;5.50;;;;;;;10.86;59.91;101493.54;1773936;80;20989;-80
2021/09/08 05:38:06;;;;;;;10.70;5.60;;;;;;;11.05;59.03;101491.06;1775224;79;21452;-81
2021/09/08 05:40:33;;;;;;;10.80;5.30;;;;;;;11.23;58.81;101492.53;1766671;80;22465;-81
2021/09/08 05:43:01;;;;;;;9.38;4.78;;;;;;;11.41;58.26;101492.67;1775397;80;20934;-79
2021/09/08 05:45:28;;;;;;;9.98;5.28;;;;;;;11.59;57.64;101489.77;1775128;80;20989;-79
2021/09/08 05:47:54;;;;;;;10.03;5.05;;;;;;;11.79;55.62;101492.42;1744728;81;20949;-80
2021/09/08 05:50:20;;;;;;;12.93;5.30;;;;;;;11.98;55.36;101488.47;1744569;82;21550;-81
2021/09/08 05:52:48;;;;;;;7.45;4.90;;;;;;;12.16;54.89;101486.38;1754218;80;21822;-81
2021/09/08 05:55:15;;;;;;;7.72;5.28;;;;;;;12.32;54.44;101491.45;1775018;80;21048;-81
2021/09/08 05:57:42;;;;;;;8.90;4.92;;;;;;;12.46;53.92;101482.09;1775067;80;20979;-81
2021/09/08 06:00:11;;;;;;;9.28;5.03;;;;;;;12.61;52.55;101480.15;1749595;80;21455;-79
2021/09/08 06:02:38;;;;;;;7.22;4.58;;;;;;;12.79;52.74;101481.50;1749542;80;20990;-82
2021/09/08 06:05:06;;;;;;;12.90;4.83;;;;;;;12.95;51.87;101479.94;1744619;82;21799;-81
2021/09/08 06:07:33;;;;;;;7.83;4.08;;;;;;;13.10;51.28;101481.95;1746684;80;21432;-80
2021/09/08 06:09:59;;;;;;;6.85;4.70;;;;;;;13.24;50.78;101480.52;1739362;80;21434;-82
2021/09/08 06:12:25;;;;;;;6.80;3.90;;;;;;;13.39;49.89;101478.05;1763545;80;21442;-81
2021/09/08 06:14:52;;;;;;;5.97;4.08;;;;;;;13.54;49.41;101472.10;1754394;80;20976;-80
2021/09/08 06:17:20;;;;;;;11.25;4.00;;;;;;;13.70;49.08;101471.78;1744482;82;22542;-83
2021/09/08 06:19:49;;;;;;;11.53;3.92;;;;;;;13.81;48.90;101467.86;1746436;80;21046;-82
2021/09/08 06:22:15;;;;;;;5.83;3.87;;;;;;;13.94;48.84;101467.28;1746427;80;21080;-82
2021/09/08 06:24:42;;;;;;;10.50;4.53;;;;;;;14.10;48.13;101465.64;1754763;80;20945;-76
2021/09/08 06:27:09;;;;;;;9.25;3.98;;;;;;;14.24;47.65;101462.75;1769099;80;21426;-77
2021/09/08 06:29:36;;;;;;;7.85;4.00;;;;;;;14.40;47.47;101457.59;1744358;81;21782;-77
2021/09/08 06:32:02;;;;;;;8.83;4.53;;;;;;;14.54;46.85;101460.03;1751782;80;21050;-78
2021/09/08 06:34:30;;;;;;;9.48;4.03;;;;;;;14.67;46.34;101459.89;1766029;80;21315;-78
2021/09/08 06:36:57;;;;;;;7.85;4.17;;;;;;;14.78;46.00;101455.44;1761758;80;21008;-78
2021/09/08 06:39:24;;;;;;;9.60;3.83;;;;;;;14.88;45.96;101459.05;1765301;80;20988;-78
2021/09/08 06:41:51;;;;;;;5.67;3.60;;;;;;;15.01;45.43;101454.06;1780543;80;21817;-78
2021/09/08 06:44:18;;;;;;;7.90;3.62;;;;;;;15.10;44.81;101454.16;1758175;80;21633;-75
2021/09/08 06:46:44;;;;;;;7.62;4.15;;;;;;;15.22;44.65;101456.79;1768979;80;21431;-74
2021/09/08 06:49:11;;;;;;;7.30;3.95;;;;;;;15.33;44.73;101456.27;1769666;80;22204;-79
2021/09/08 06:51:37;;;;;;;9.23;3.98;;;;;;;15.47;44.24;101453.81;1775306;80;21019;-75
2021/09/08 06:54:04;;;;;;;9.60;3.95;;;;;;;15.62;43.76;101459.70;1760632;80;22773;-77
2021/09/08 06:56:33;;;;;;;6.90;3.30;;;;;;;15.73;43.70;101464.51;1767636;80;21078;-74
2021/09/08 06:58:59;;;;;;;5.10;3.08;;;;;;;15.85;43.10;101461.30;1751826;81;21018;-73
2021/09/08 07:01:26;;;;;;;7.50;3.30;;;;;;;15.99;41.70;101464.11;1765872;80;21011;-73
2021/09/08 07:03:53;;;;;;;6.10;3.20;;;;;;;16.11;41.37;101465.72;1751452;81;20948;-73
2021/09/08 07:06:24;;;;;;;11.80;3.40;;;;;;;16.21;41.74;101457.78;1751286;82;21826;-77
2021/09/08 07:08:48;;;;;;;9.88;3.20;;;;;;;16.32;41.68;101459.06;1750890;81;20992;-77
2021/09/08 07:11:16;;;;;;;7.65;3.87;;;;;;;16.44;41.84;101449.15;1751487;82;21003;-74
2021/09/08 07:13:43;;;;;;;6.72;3.10;;;;;;;16.56;41.14;101453.41;1751390;82;21003;-74
2021/09/08 07:16:10;;;;;;;7.30;3.25;;;;;;;16.67;41.09;101454.64;1756346;80;21474;-79
2021/09/08 07:18:37;;;;;;;6.17;3.00;;;;;;;16.80;41.00;101445.11;1762828;80;22636;-85
2021/09/08 07:21:05;;;;;;;5.45;3.10;;;;;;;16.95;41.01;101453.56;1752294;82;20952;-82
2021/09/08 07:23:32;;;;;;;5.05;3.20;;;;;;;17.09;40.71;101449.19;1752336;82;20984;-83
2021/09/08 07:25:58;;;;;;;6.00;2.62;;;;;;;17.23;39.62;101451.94;1752398;82;21032;-81
2021/09/08 07:28:25;;;;;;;7.15;2.65;;;;;;;17.33;38.97;101448.28;1752381;82;21370;-81
2021/09/08 07:30:54;;;;;;;5.17;2.77;;;;;;;17.42;39.08;101450.13;1754144;80;21416;-79
2021/09/08 07:33:22;;;;;;;5.08;2.52;;;;;;;17.52;38.87;101452.80;1774068;80;21161;-79
2021/09/08 07:35:49;;;;;;;6.40;2.80;;;;;;;17.62;38.57;101448.30;1758773;80;21023;-80
2021/09/08 07:38:17;;;;;;;6.30;2.58;;;;;;;17.75;38.57;101440.01;1722611;82;21023;-80
2021/09/08 07:40:44;;;;;;;5.65;2.58;;;;;;;17.86;37.89;101436.37;1752429;80;21043;-77
2021/09/08 07:43:11;;;;;;;7.17;2.67;;;;;;;17.95;37.77;101438.16;1752430;82;21803;-76
2021/09/08 07:45:38;;;;;;;5.28;2.70;;;;;;;18.02;37.72;101439.27;1752286;82;21459;-77
2021/09/08 07:48:04;;;;;;;5.33;2.77;;;;;;;18.09;37.30;101436.87;1762681;80;21344;-78
2021/09/08 07:50:31;;;;;;;8.43;2.75;;;;;;;18.15;36.70;101433.63;1783278;80;20937;-76
2021/09/08 07:52:58;;;;;;;3.83;2.42;;;;;;;18.20;36.54;101437.53;1758457;80;21430;-81
2021/09/08 07:55:24;;;;;;;4.62;2.50;;;;;;;18.28;36.41;101428.80;1752255;82;22627;-75
2021/09/08 07:57:51;;;;;;;3.95;2.45;;;;;;;18.38;37.12;101426.92;1752314;82;21339;-76
2021/09/08 08:00:18;;;;;;;4.85;2.08;;;;;;;18.51;37.23;101430.09;1752302;82;21490;-77
2021/09/08 08:02:49;;;;;;;3.55;2.00;;;;;;;18.64;36.59;101435.12;1779776;80;20995;-75
2021/09/08 08:05:16;;;;;;;5.80;2.05;;;;;;;18.72;35.65;101434.39;1783646;80;21059;-76
2021/09/08 08:07:43;;;;;;;5.50;2.50;;;;;;;18.79;36.27;101427.46;1783138;80;22210;-76
2021/09/08 08:10:10;;;;;;;7.10;2.10;;;;;;;18.90;36.03;101425.91;1755595;80;21028;-77
2021/09/08 08:12:39;;;;;;;3.67;1.90;;;;;;;19.02;35.47;101430.58;1758530;80;21054;-70
2021/09/08 08:15:07;;;;;;;2.90;2.05;;;;;;;19.09;35.17;101423.61;1765995;80;21055;-70
2021/09/08 08:17:35;;;;;;;5.33;2.15;;;;;;;19.12;35.50;101419.31;1782353;80;20964;-70
2021/09/08 08:20:04;;;;;;;8.18;2.30;;;;;;;19.22;34.72;101420.58;1752589;82;22197;-70
2021/09/08 08:22:31;;;;;;;1.82;1.45;;;;;;;19.31;34.64;101427.70;1752427;82;20860;-75
2021/09/08 08:24:57;;;;;;;3.20;2.10;;;;;;;19.40;33.45;101426.78;1752713;80;20976;-80
2021/09/08 08:27:24;;;;;;;4.25;2.10;;;;;;;19.38;33.99;101420.20;1782478;79;20932;-78
2021/09/08 08:29:50;;;;;;;8.08;2.10;;;;;;;19.48;33.79;101420.63;1782743;80;21031;-80
2021/09/08 08:32:17;;;;;;;4.65;1.90;;;;;;;19.60;34.52;101428.33;1754541;79;21831;-77
2021/09/08 08:34:43;;;;;;;5.95;2.10;;;;;;;19.71;33.29;101433.94;1744342;82;20981;-76
2021/09/08 08:37:10;;;;;;;4.00;2.27;;;;;;;19.75;32.56;101425.91;1744565;81;20952;-76
2021/09/08 08:39:38;;;;;;;4.33;2.08;;;;;;;19.80;33.20;101436.19;1749811;80;21027;-81
2021/09/08 08:42:13;;;;;;;3.45;1.80;;;;;;;19.86;32.67;101431.02;1745553;80;21316;-81
2021/09/08 08:44:36;;;;;;;5.20;2.12;;;;;;;19.88;31.60;101434.41;1774125;80;21834;-80
2021/09/08 08:47:05;;;;;;;4.40;2.20;;;;;;;19.87;31.98;101427.34;1768607;80;20965;-81
2021/09/08 08:49:31;;;;;;;6.08;2.08;;;;;;;19.93;31.68;101426.72;1730980;82;20961;-80
2021/09/08 08:51:57;;;;;;;4.87;2.02;;;;;;;19.96;32.13;101419.70;1724143;82;20964;-81
2021/09/08 08:54:24;;;;;;;4.37;2.50;;;;;;;20.00;32.31;101415.72;1744465;82;20980;-81
2021/09/08 08:56:52;;;;;;;6.40;2.37;;;;;;;20.03;32.66;101413.21;1744452;82;22185;-81
2021/09/08 08:59:19;;;;;;;4.50;2.35;;;;;;;20.07;32.42;101407.02;1747939;80;20997;-81
2021/09/08 09:01:46;;;;;;;4.90;2.33;;;;;;;20.17;32.55;101408.62;1769070;80;21570;-81
2021/09/08 09:04:14;;;;;;;3.10;1.98;;;;;;;20.24;32.34;101419.53;1775218;80;20972;-81
2021/09/08 09:06:42;;;;;;;4.25;2.42;;;;;;;20.28;31.53;101411.02;1775180;79;20929;-81
2021/09/08 09:09:13;;;;;;;3.08;2.35;;;;;;;20.30;32.54;101405.49;1775552;80;22483;-82
2021/09/08 09:11:43;;;;;;;5.40;2.62;;;;;;;20.40;32.91;101397.33;1775240;80;20934;-82
2021/09/08 09:14:11;;;;;;;5.53;2.40;;;;;;;20.46;32.12;101390.85;1774923;80;20977;-82
2021/09/08 09:16:40;;;;;;;5.70;2.50;;;;;;;20.53;32.06;101397.23;1764909;80;21081;-81
2021/09/08 09:19:08;;;;;;;4.62;2.33;;;;;;;20.64;31.98;101389.89;1764771;80;21064;-82
2021/09/08 09:21:35;;;;;;;4.42;2.35;;;;;;;20.75;32.26;101385.55;1775210;80;21845;-81
2021/09/08 09:24:06;;;;;;;5.50;2.60;;;;;;;20.88;32.15;101383.26;1775116;80;20941;-80
2021/09/08 09:26:35;;;;;;;5.75;2.52;;;;;;;21.00;31.56;101378.41;1775192;80;20933;-82
2021/09/08 09:29:18;;;;;;;3.90;2.42;;;;;;;21.01;31.50;101385.45;1775115;80;21370;-82
2021/09/08 09:31:57;;;;;;;5.50;2.42;;;;;;;21.00;31.29;101382.44;1775771;80;20937;-82
2021/09/08 09:34:29;;;;;;;4.78;2.70;;;;;;;21.00;31.74;101369.84;1765587;80;21821;-82
2021/09/08 09:36:59;;;;;;;5.28;2.30;;;;;;;21.15;33.23;101370.05;1752372;81;21031;-82
2021/09/08 09:39:31;;;;;;;4.62;2.52;;;;;;;21.33;32.37;101362.70;1752388;82;21098;-82
2021/09/08 09:41:59;;;;;;;5.37;2.55;;;;;;;21.52;32.04;101361.52;1762273;80;20952;-82
2021/09/08 09:44:31;;;;;;;5.87;2.20;;;;;;;21.71;31.01;101364.33;1783436;80;21000;-82
2021/09/08 09:47:00;;;;;;;4.95;2.37;;;;;;;21.82;31.13;101363.16;1783642;80;22220;-82
2021/09/08 09:49:33;;;;;;;6.67;2.55;;;;;;;21.84;30.70;101358.45;1786303;80;20995;-82
2021/09/08 09:52:05;;;;;;;4.20;2.70;;;;;;;21.93;30.80;101348.01;1729360;82;21023;-82
2021/09/08 09:54:32;;;;;;;4.58;2.27;;;;;;;22.12;30.50;101359.75;1752450;82;20948;-81
2021/09/08 09:56:59;;;;;;;9.95;2.65;;;;;;;22.20;29.92;101357.03;1752458;80;21000;-82
2021/09/08 09:59:26;;;;;;;4.78;2.65;;;;;;;22.26;30.22;101346.06;1723115;82;21842;-81
2021/09/08 10:01:53;;;;;;;9.23;2.50;;;;;;;22.41;31.13;101339.45;1758213;80;20933;-80
2021/09/08 10:04:20;;;;;;;5.60;2.47;;;;;;;22.64;30.79;101347.06;1752314;81;21387;-81
2021/09/08 10:06:46;;;;;;;5.15;2.60;;;;;;;22.73;29.33;101347.85;1752423;81;21007;-81
2021/09/08 10:09:15;;;;;;;5.85;2.40;;;;;;;22.68;29.62;101340.80;1780835;80;20926;-87
2021/09/08 10:11:44;;;;;;;3.92;2.37;;;;;;;22.68;29.44;101345.70;1753094;80;21832;-84
2021/09/08 10:14:15;;;;;;;6.12;2.47;;;;;;;22.70;28.89;101341.48;1783320;80;21404;-79
2021/09/08 10:16:47;;;;;;;4.40;2.60;;;;;;;22.70;29.30;101328.86;1783608;79;21335;-78
2021/09/08 10:19:24;;;;;;;3.83;2.40;;;;;;;22.77;29.59;101327.11;1761481;80;22655;-76
2021/09/08 10:21:53;;;;;;;6.20;2.33;;;;;;;22.94;28.79;101319.79;1752560;82;21459;-79
2021/09/08 10:24:25;;;;;;;6.03;2.62;;;;;;;23.09;28.98;101332.83;1753388;80;21847;-78
2021/09/08 10:26:52;;;;;;;6.72;3.00;;;;;;;23.10;28.75;101320.19;1752496;82;21383;-78
2021/09/08 10:29:28;;;;;;;6.45;2.47;;;;;;;23.10;28.76;101320.19;1752324;82;20985;-81
2021/09/08 10:31:57;;;;;;;4.62;2.60;;;;;;;23.03;28.76;101325.45;1724897;82;21335;-78
2021/09/08 10:34:24;;;;;;;7.58;2.80;;;;;;;23.01;29.39;101318.57;1744379;82;20948;-77
2021/09/08 10:36:50;;;;;;;6.85;2.62;;;;;;;23.23;30.18;101316.88;1744702;82;21794;-74
2021/09/08 10:39:20;;;;;;;4.12;2.37;;;;;;;23.51;29.51;101311.22;1744353;82;21443;-75
2021/09/08 10:41:49;;;;;;;4.10;2.37;;;;;;;23.72;28.94;101301.08;1744853;80;21056;-75
2021/09/08 10:44:19;;;;;;;6.45;3.77;;;;;;;23.90;29.52;101294.81;1757752;80;20936;-74
2021/09/08 10:46:57;;;;;;;9.20;3.08;;;;;;;24.06;28.01;101300.53;1775403;80;20984;-75
2021/09/08 10:49:45;;;;;;;7.72;3.20;;;;;;;24.14;28.00;101303.14;1775028;80;21809;-78
2021/09/08 10:52:32;;;;;;;7.12;2.60;;;;;;;24.24;27.25;101298.28;1746162;80;20936;-76
2021/09/08 10:55:08;;;;;;;4.15;2.47;;;;;;;24.33;27.27;101300.91;1744367;82;33817;-76
2021/09/08 10:57:47;;;;;;;5.85;2.55;;;;;;;24.41;26.73;101304.31;1744457;82;20953;-77
2021/09/08 11:00:34;;;;;;;5.17;2.55;;;;;;;24.37;26.36;101300.33;1707589;84;21000;-77
2021/09/08 11:03:01;;;;;;;4.67;2.52;;;;;;;24.30;26.44;101299.89;1742607;82;22454;-76
2021/09/08 11:05:27;;;;;;;8.25;2.92;;;;;;;24.27;26.76;101307.86;1744383;82;21379;-76
2021/09/08 11:07:55;;;;;;;4.25;2.50;;;;;;;24.44;26.60;101304.47;1744394;82;20953;-76
2021/09/08 11:10:32;;;;;;;8.23;2.87;;;;;;;24.54;26.50;101303.64;1744498;80;20956;-77
2021/09/08 11:13:01;;;;;;;5.50;2.52;;;;;;;24.55;26.49;101291.30;1758731;80;21443;-80
2021/09/08 11:15:37;;;;;;;6.55;4.05;;;;;;;24.55;26.89;101289.11;1767496;80;21812;-80
2021/09/08 11:18:11;;;;;;;5.15;3.02;;;;;;;24.72;26.61;101296.47;1775543;80;20910;-79
2021/09/08 11:20:40;;;;;;;6.22;3.08;;;;;;;24.91;25.97;101296.34;1775121;80;20985;-77
2021/09/08 11:23:11;;;;;;;10.10;2.98;;;;;;;24.99;26.32;101299.73;1775170;80;21008;-77
2021/09/08 11:25:42;;;;;;;5.37;2.90;;;;;;;25.16;26.74;101297.63;1775124;80;20981;-77
2021/09/08 11:28:09;;;;;;;6.62;3.15;;;;;;;25.27;25.72;101291.69;1775514;80;21805;-77